createdAt,value
2023-03-31T00:02:44.919Z,100860.78
2023-03-31T00:07:51.153Z,100973.19
2023-03-31T00:12:53.867Z,100963.09
2023-03-31T00:18:01.128Z,100997.78
2023-03-31T00:23:06.820Z,100989.84
2023-03-31T00:28:09.660Z,100976.31
2023-03-31T00:33:12.737Z,100988.78
2023-03-31T00:38:15.620Z,100972.13
2023-03-31T00:43:39.974Z,101002.69
2023-03-31T00:48:58.151Z,100971.44
2023-03-31T00:54:06.405Z,100987.38
2023-03-31T00:59:12.620Z,100933.72
2023-03-31T01:04:22.923Z,100991.31
2023-03-31T01:09:26.746Z,100929.16
2023-03-31T01:14:32.344Z,100948.09
2023-03-31T01:20:02.449Z,101020.13
2023-03-31T01:25:34.686Z,100949.44
2023-03-31T01:30:49.931Z,101033.75
2023-03-31T01:36:16.945Z,101035.69
2023-03-31T01:41:38.065Z,101027.47
2023-03-31T01:46:56.053Z,101033.06
2023-03-31T01:52:13.483Z,101012.16
2023-03-31T01:57:20.034Z,100977.78
2023-03-31T02:02:31.009Z,100942.91
2023-03-31T02:07:44.874Z,100996.78
2023-03-31T02:12:50.678Z,101045.94
2023-03-31T02:17:56.660Z,101014.31
2023-03-31T02:23:03.040Z,100976.50
2023-03-31T02:28:13.108Z,100997.59
2023-03-31T02:33:17.760Z,101038.38
2023-03-31T02:38:21.100Z,101044.31
2023-03-31T02:43:24.458Z,101032.50
2023-03-31T02:48:41.071Z,101024.97
2023-03-31T02:54:11.345Z,101037.22
2023-03-31T02:59:42.635Z,101025.78
2023-03-31T03:04:54.107Z,101035.78
2023-03-31T03:10:07.712Z,100993.41
2023-03-31T03:15:32.894Z,101039.06
2023-03-31T03:20:36.219Z,101038.41
2023-03-31T03:25:39.093Z,101031.69
2023-03-31T03:30:42.780Z,101032.50
2023-03-31T03:35:45.614Z,100959.47
2023-03-31T03:40:50.205Z,100951.09
2023-03-31T03:45:53.209Z,101032.25
2023-03-31T03:50:55.866Z,101009.16
2023-03-31T03:55:59.655Z,100931.69
2023-03-31T04:01:02.930Z,100959.63
2023-03-31T04:06:06.147Z,101022.28
2023-03-31T04:11:18.095Z,100986.06
2023-03-31T04:16:23.984Z,100998.28
2023-03-31T04:21:26.705Z,101005.31
2023-03-31T04:26:43.658Z,100970.53
2023-03-31T04:31:48.068Z,101026.25
2023-03-31T04:36:51.779Z,101024.94
2023-03-31T04:41:55.536Z,101025.84
2023-03-31T04:46:59.747Z,101024.09
2023-03-31T04:52:03.422Z,101011.03
2023-03-31T04:57:06.554Z,100986.28
2023-03-31T05:02:09.537Z,101029.94
2023-03-31T05:07:11.945Z,101006.16
2023-03-31T05:12:14.925Z,101035.13
2023-03-31T05:17:18.204Z,100977.91
2023-03-31T05:22:22.207Z,101022.06
2023-03-31T05:27:25.553Z,100979.78
2023-03-31T05:32:29.289Z,101024.66
2023-03-31T05:37:34.227Z,101022.06
2023-03-31T05:42:48.545Z,101011.03
2023-03-31T05:49:08.744Z,101039.72
2023-03-31T05:54:14.433Z,100986.16
2023-03-31T06:00:12.126Z,101040.31
2023-03-31T06:05:17.805Z,100957.25
2023-03-31T06:10:22.479Z,101033.25
2023-03-31T06:15:29.702Z,101006.97
2023-03-31T06:20:35.780Z,101021.59
2023-03-31T06:25:50.253Z,100973.78
2023-03-31T06:31:11.761Z,101043.88
2023-03-31T06:36:18.997Z,101043.69
2023-03-31T06:41:51.813Z,101052.50
2023-03-31T06:47:03.576Z,101003.63
2023-03-31T06:52:06.648Z,101059.53
2023-03-31T06:57:10.602Z,101036.34
2023-03-31T07:02:14.977Z,101051.41
2023-03-31T07:07:18.551Z,101023.88
2023-03-31T07:12:22.136Z,101041.91
2023-03-31T07:17:25.789Z,101045.50
2023-03-31T07:22:29.429Z,101057.84
2023-03-31T07:27:39.578Z,101041.22
2023-03-31T07:32:44.138Z,101024.56
2023-03-31T07:38:03.963Z,101042.50
2023-03-31T07:43:12.464Z,101055.66
2023-03-31T07:48:15.121Z,101038.97
2023-03-31T07:53:19.029Z,101082.31
2023-03-31T07:58:22.043Z,101077.53
2023-03-31T08:03:25.437Z,101058.16
2023-03-31T08:08:28.444Z,101039.91
2023-03-31T08:13:31.773Z,101030.97
2023-03-31T08:18:35.976Z,101064.66
2023-03-31T08:23:39.107Z,101071.03
2023-03-31T08:28:43.407Z,101055.53
2023-03-31T08:33:55.860Z,101038.09
2023-03-31T08:38:59.180Z,101041.34
2023-03-31T08:44:09.978Z,101063.81
2023-03-31T08:49:17.183Z,101054.09
2023-03-31T08:54:26.590Z,101053.31
2023-03-31T08:59:33.536Z,101063.63
2023-03-31T09:05:08.198Z,101045.81
2023-03-31T09:10:23.976Z,101029.81
2023-03-31T09:15:39.727Z,101046.69
2023-03-31T09:20:50.040Z,101054.78
2023-03-31T09:25:58.073Z,101052.19
2023-03-31T09:31:28.408Z,101056.47
2023-03-31T09:37:47.517Z,101049.34
2023-03-31T09:43:03.196Z,101040.16
2023-03-31T09:48:14.036Z,101019.78
2023-03-31T09:53:40.607Z,101041.00
2023-03-31T09:58:47.272Z,101045.50
2023-03-31T10:03:54.346Z,101069.06
2023-03-31T10:09:03.991Z,101022.56
2023-03-31T10:14:17.693Z,101048.63
2023-03-31T10:19:24.676Z,101047.44
2023-03-31T10:24:37.592Z,101035.53
2023-03-31T10:29:42.203Z,101044.63
2023-03-31T10:34:45.101Z,101056.34
2023-03-31T10:39:49.717Z,101030.41
2023-03-31T10:45:37.049Z,101078.94
2023-03-31T10:51:14.929Z,101071.34
2023-03-31T10:56:48.999Z,101087.50
2023-03-31T11:02:14.831Z,101082.94
2023-03-31T11:07:45.453Z,101075.28
2023-03-31T11:13:33.312Z,101070.81
2023-03-31T11:19:23.160Z,101062.66
2023-03-31T11:24:41.622Z,101084.06
2023-03-31T11:29:44.712Z,101091.28
2023-03-31T11:35:00.390Z,101089.25
2023-03-31T11:40:15.398Z,101086.38
2023-03-31T11:45:42.114Z,101093.28
2023-03-31T11:50:50.111Z,101084.28
2023-03-31T11:55:56.382Z,101083.34
2023-03-31T12:01:18.525Z,101092.91
2023-03-31T12:06:26.169Z,101084.97
2023-03-31T12:11:53.731Z,101107.97
2023-03-31T12:17:05.996Z,101089.78
2023-03-31T12:22:13.157Z,101122.34
2023-03-31T12:27:40.919Z,101136.72
2023-03-31T12:33:11.540Z,101131.75
2023-03-31T12:46:25.750Z,101108.97
2023-03-31T12:51:45.585Z,101143.91
2023-03-31T12:57:02.247Z,101155.09
2023-03-31T13:02:27.261Z,101141.28
2023-03-31T13:07:30.718Z,101146.44
2023-03-31T13:12:35.898Z,101145.19
2023-03-31T13:17:42.821Z,101149.81
2023-03-31T13:22:50.851Z,101142.09
2023-03-31T13:27:54.622Z,101091.38
2023-03-31T13:33:25.234Z,101157.41
2023-03-31T13:38:27.525Z,101158.63
2023-03-31T13:43:33.307Z,101162.72
2023-03-31T13:49:02.132Z,101168.84
2023-03-31T13:54:20.403Z,101177.22
2023-03-31T14:00:01.892Z,101170.50
2023-03-31T14:05:31.976Z,101171.69
2023-03-31T14:10:37.720Z,101137.66
2023-03-31T14:16:00.090Z,101168.06
2023-03-31T14:21:06.543Z,101200.63
2023-03-31T14:26:18.448Z,101196.22
2023-03-31T14:31:45.175Z,101189.50
2023-03-31T14:36:51.849Z,101197.84
2023-03-31T14:41:58.327Z,101197.25
2023-03-31T14:47:00.839Z,101199.47
2023-03-31T14:52:20.232Z,101216.00
2023-03-31T14:57:33.035Z,101216.59
2023-03-31T15:02:39.544Z,101221.31
2023-03-31T15:07:41.908Z,101225.41
2023-03-31T15:12:44.445Z,101237.19
2023-03-31T15:17:48.021Z,101246.41
2023-03-31T15:22:50.980Z,101243.94
2023-03-31T15:28:01.867Z,101258.16
2023-03-31T15:33:18.381Z,101263.84
2023-03-31T15:38:23.748Z,101268.50
2023-03-31T15:43:52.745Z,101276.16
2023-03-31T15:48:56.221Z,101295.47
2023-03-31T15:53:59.868Z,101281.72
2023-03-31T15:59:07.086Z,101310.72
2023-03-31T16:04:13.450Z,101310.81
2023-03-31T16:09:24.448Z,101326.94
2023-03-31T16:14:33.449Z,101333.03
2023-03-31T16:19:46.672Z,101321.03
2023-03-31T16:24:49.751Z,101343.88
2023-03-31T16:30:07.752Z,101357.34
2023-03-31T16:35:10.988Z,101366.88
2023-03-31T16:40:14.065Z,101367.00
2023-03-31T16:45:16.862Z,101377.69
2023-03-31T16:50:19.584Z,101386.28
2023-03-31T16:55:22.045Z,101374.81
2023-03-31T17:00:24.451Z,101408.56
2023-03-31T17:05:26.817Z,101409.47
2023-03-31T17:10:29.279Z,101423.13
2023-03-31T17:15:32.029Z,101432.59
2023-03-31T17:20:35.105Z,101442.25
2023-03-31T17:25:38.054Z,101448.03
2023-03-31T17:30:44.402Z,101436.94
2023-03-31T17:35:46.969Z,101455.06
2023-03-31T17:40:49.359Z,101466.53
2023-03-31T17:45:51.694Z,101462.38
2023-03-31T17:50:54.820Z,101452.78
2023-03-31T17:55:57.787Z,101445.25
2023-03-31T18:01:00.616Z,101440.97
2023-03-31T18:06:08.348Z,101417.38
2023-03-31T18:11:11.537Z,101423.84
2023-03-31T18:16:14.125Z,101438.25
2023-03-31T18:21:16.479Z,101436.78
2023-03-31T18:26:19.965Z,101441.06
2023-03-31T18:31:22.825Z,101426.66
2023-03-31T18:36:28.644Z,101439.00
2023-03-31T18:41:31.372Z,101431.81
2023-03-31T18:46:33.700Z,101426.72
2023-03-31T18:51:36.320Z,101421.06
2023-03-31T18:56:38.630Z,101436.81
2023-03-31T19:01:41.085Z,101427.47
2023-03-31T19:06:43.444Z,101437.88
2023-03-31T19:11:46.012Z,101434.28
2023-03-31T19:16:48.561Z,101426.25
2023-03-31T19:21:52.614Z,101430.16
2023-03-31T19:26:58.080Z,101415.69
2023-03-31T19:32:00.696Z,101438.53
2023-03-31T19:37:04.089Z,101425.00
2023-03-31T19:42:06.607Z,101439.06
2023-03-31T19:47:08.936Z,101444.16
2023-03-31T19:52:11.353Z,101433.63
2023-03-31T19:57:13.778Z,101420.19
2023-03-31T20:02:16.764Z,101437.19
2023-03-31T20:07:19.930Z,101440.22
2023-03-31T20:12:24.102Z,101431.28
2023-03-31T20:17:26.714Z,101435.31
2023-03-31T20:22:30.064Z,101411.19
2023-03-31T20:27:32.805Z,101452.88
2023-03-31T20:32:35.885Z,101460.25
2023-03-31T20:37:38.327Z,101459.72
2023-03-31T20:42:41.810Z,101463.03
2023-03-31T20:47:44.431Z,101458.34
2023-03-31T20:52:47.933Z,101462.78
2023-03-31T20:57:50.749Z,101478.78
2023-03-31T21:02:54.332Z,101469.84
2023-03-31T21:07:57.104Z,101460.88
2023-03-31T21:13:00.289Z,101453.00
2023-03-31T21:18:03.508Z,101464.50
2023-03-31T21:23:06.065Z,101442.16
2023-03-31T21:28:08.939Z,101466.63
2023-03-31T21:33:12.429Z,101471.72
2023-03-31T21:38:16.871Z,101462.97
2023-03-31T21:43:20.733Z,101487.91
2023-03-31T21:48:25.590Z,101472.44
2023-03-31T21:53:30.012Z,101484.59
2023-03-31T21:58:33.141Z,101475.06
2023-03-31T22:03:39.143Z,101489.84
2023-03-31T22:08:41.745Z,101495.81
2023-03-31T22:13:45.156Z,101494.66
2023-03-31T22:18:50.745Z,101511.00
2023-03-31T22:23:56.119Z,101498.47
2023-03-31T22:28:59.566Z,101479.22
2023-03-31T22:34:03.032Z,101486.63
2023-03-31T22:39:05.971Z,101474.13
2023-03-31T22:44:10.056Z,101498.78
2023-03-31T22:49:13.593Z,101517.16
2023-03-31T22:54:17.923Z,101507.94
2023-03-31T22:59:21.379Z,101512.63
2023-03-31T23:04:24.033Z,101518.66
2023-03-31T23:09:27.566Z,101525.25
2023-03-31T23:14:29.908Z,101528.06
2023-03-31T23:19:32.495Z,101541.72
2023-03-31T23:24:34.819Z,101534.84
2023-03-31T23:29:37.310Z,101492.94
2023-03-31T23:34:42.060Z,101540.25
2023-03-31T23:39:44.594Z,101540.59
2023-03-31T23:44:48.899Z,101532.91
2023-03-31T23:49:51.406Z,101537.34
2023-03-31T23:54:53.679Z,101546.69
2023-03-31T23:59:57.002Z,101521.38
